Wind Cave Natl Park, South Dakota
Current Conditions -  °F | °C
As of 7:53 PM on Thursday 27 Nov 2014 (Local Time) from KCUT Reporting Station
Clear Clear  
Wind Chill: 44°   Ceiling: Unl
Heat Index: 44°   Visibility: 10mi
Dew Point: 24°   Wind: 3mph
Humidity: 45%   Direction: 290°WNW
Pressure: 29.94"   Gusts: NA
Location:  43.59°N, 103.42°W
Report Text: KCUT 280253Z AUTO 29003KT 10SM CLR 07/M04 A2994 RMK AO2 SLP137 T00671044 58000
Loading
Personal Weather Stations






























Interactive Weather Map New forecast layout! Learn more

10-Day Weather Forecast

Advertisements
Track Severe Weather on mobile